Time;durP1;ratioP1;P1;durP2;ratioP2;P2;SDS_P1;SDS_P2;PMS_P1;PMS_P2;Temp;Humidity;BMP_temperature;BMP_pressure;BME280_temperature;BME280_humidity;BME280_pressure;Samples;Min_cycle;Max_cycle;Signal;HPM_P1;HPM_P2
2021/12/30 00:01:39;;;;;;;33.63;5.55;;;8.20;99.90;;;;;;5094275;28;19920;-67
2021/12/30 00:04:05;;;;;;;41.83;5.15;;;8.00;99.90;;;;;;5094248;28;20048;-67
2021/12/30 00:06:38;;;;;;;42.53;5.25;;;8.30;99.90;;;;;;5076381;28;20142;-68
2021/12/30 00:09:05;;;;;;;46.20;5.47;;;7.90;99.90;;;;;;5093177;28;20496;-68
2021/12/30 00:11:31;;;;;;;45.88;5.50;;;8.50;99.90;;;;;;5092880;28;20048;-68
2021/12/30 00:13:56;;;;;;;34.25;5.85;;;7.70;99.90;;;;;;5093959;28;20044;-67
2021/12/30 00:16:22;;;;;;;43.58;5.43;;;8.00;99.90;;;;;;5093062;28;20066;-68
2021/12/30 00:18:49;;;;;;;44.40;5.03;;;7.90;99.90;;;;;;5094019;28;20048;-68
2021/12/30 00:21:16;;;;;;;44.35;5.68;;;8.20;99.90;;;;;;5094052;28;20058;-68
2021/12/30 00:23:42;;;;;;;41.95;5.28;;;7.60;99.90;;;;;;5093908;28;20079;-68
2021/12/30 00:26:09;;;;;;;42.45;5.13;;;7.90;99.90;;;;;;5093626;28;20051;-67
2021/12/30 00:28:34;;;;;;;;;;;7.80;99.90;;;;;;5093028;28;20043;-68
2021/12/30 00:31:00;;;;;;;57.40;6.93;;;7.80;99.90;;;;;;5093745;28;19927;-68
2021/12/30 00:33:27;;;;;;;42.00;6.15;;;7.80;99.90;;;;;;5092437;28;20048;-68
2021/12/30 00:35:53;;;;;;;43.55;5.88;;;7.70;99.90;;;;;;5093148;28;20051;-67
2021/12/30 00:38:19;;;;;;;;;;;7.70;99.90;;;;;;5092973;28;20078;-68
2021/12/30 00:40:46;;;;;;;37.88;6.43;;;8.00;99.90;;;;;;5093465;28;19975;-68
2021/12/30 00:43:12;;;;;;;48.63;6.93;;;7.60;99.90;;;;;;5092888;28;20062;-68
2021/12/30 00:45:38;;;;;;;56.08;6.88;;;7.50;99.90;;;;;;5092525;28;20063;-68
2021/12/30 00:48:05;;;;;;;48.72;6.57;;;7.90;99.90;;;;;;5093364;28;20511;-68
2021/12/30 00:50:31;;;;;;;53.40;6.82;;;7.50;99.90;;;;;;5093418;28;20044;-68
2021/12/30 00:52:59;;;;;;;53.70;6.32;;;7.60;99.90;;;;;;5093466;28;20043;-68
2021/12/30 00:55:25;;;;;;;55.10;6.15;;;7.50;99.90;;;;;;5093245;28;20051;-68
2021/12/30 00:57:51;;;;;;;60.95;7.32;;;7.60;99.90;;;;;;5092473;28;20084;-67
2021/12/30 01:00:19;;;;;;;41.78;6.28;;;7.60;99.90;;;;;;5093455;28;20084;-67
2021/12/30 01:02:45;;;;;;;59.13;7.18;;;7.70;99.90;;;;;;5092480;28;20076;-67
2021/12/30 01:05:12;;;;;;;58.17;7.75;;;7.80;99.90;;;;;;5093493;28;20040;-67
2021/12/30 01:07:38;;;;;;;58.25;7.13;;;;;;;;;;5093343;28;20044;-68
2021/12/30 01:10:04;;;;;;;;;;;;;;;;;;5093664;28;20123;-68
2021/12/30 01:12:30;;;;;;;59.40;7.20;;;7.50;99.90;;;;;;5092150;28;20050;-68
2021/12/30 01:14:55;;;;;;;62.13;8.05;;;7.60;99.90;;;;;;5075363;28;20123;-68
2021/12/30 01:17:39;;;;;;;67.03;8.05;;;7.40;99.90;;;;;;5092232;28;20052;-68
2021/12/30 01:20:06;;;;;;;64.45;6.95;;;;;;;;;;5093345;28;20044;-67
2021/12/30 01:22:33;;;;;;;67.72;7.30;;;7.30;99.90;;;;;;5092226;28;20449;-68
2021/12/30 01:25:00;;;;;;;62.42;8.05;;;7.50;99.90;;;;;;5092930;28;20558;-67
2021/12/30 01:27:26;;;;;;;60.70;7.68;;;7.20;99.90;;;;;;5093284;28;20163;-68
2021/12/30 01:29:52;;;;;;;58.40;8.07;;;7.30;99.90;;;;;;5093203;28;20047;-68
2021/12/30 01:32:19;;;;;;;81.65;9.30;;;7.50;99.90;;;;;;5074961;28;20036;-68
2021/12/30 01:34:44;;;;;;;77.72;8.48;;;7.60;99.90;;;;;;5091917;28;20048;-68
2021/12/30 01:37:12;;;;;;;64.05;8.10;;;7.40;99.90;;;;;;5093134;28;20131;-68
2021/12/30 01:39:39;;;;;;;64.20;9.32;;;7.30;99.90;;;;;;5092108;28;20052;-68
2021/12/30 01:42:08;;;;;;;68.50;8.70;;;7.20;99.90;;;;;;5092142;28;20044;-68
2021/12/30 01:44:34;;;;;;;64.78;8.90;;;7.30;99.90;;;;;;5092050;28;20193;-68
2021/12/30 01:47:02;;;;;;;72.88;10.50;;;7.50;99.90;;;;;;5095749;28;20106;-68
2021/12/30 01:49:27;;;;;;;63.42;10.25;;;7.60;99.90;;;;;;5095787;28;20480;-68
2021/12/30 01:51:54;;;;;;;65.28;8.25;;;7.40;99.90;;;;;;5095441;28;20058;-68
2021/12/30 01:54:21;;;;;;;64.88;8.93;;;7.30;99.90;;;;;;5096802;28;20396;-68
2021/12/30 01:56:47;;;;;;;61.03;7.60;;;7.50;99.90;;;;;;5096668;28;20052;-68
2021/12/30 01:59:12;;;;;;;69.72;7.90;;;7.10;99.90;;;;;;5095168;28;20042;-68
2021/12/30 02:01:38;;;;;;;67.45;8.75;;;7.50;99.90;;;;;;5095434;28;20131;-68
2021/12/30 02:04:05;;;;;;;68.07;8.77;;;7.30;99.90;;;;;;5096469;28;20048;-68
2021/12/30 02:06:30;;;;;;;;;;;7.30;99.90;;;;;;5096620;28;20157;-68
2021/12/30 02:08:56;;;;;;;59.40;7.30;;;7.30;99.90;;;;;;5096448;28;20040;-68
2021/12/30 02:11:23;;;;;;;60.38;7.43;;;7.50;99.90;;;;;;5096170;28;20050;-68
2021/12/30 02:13:50;;;;;;;59.10;8.43;;;7.20;99.90;;;;;;5095041;28;20078;-68
2021/12/30 02:16:18;;;;;;;77.00;8.75;;;7.40;99.90;;;;;;5095284;28;20553;-68
2021/12/30 02:18:44;;;;;;;80.13;9.13;;;7.30;99.90;;;;;;5096347;28;20048;-68
2021/12/30 02:21:10;;;;;;;70.47;8.38;;;7.20;99.90;;;;;;5096242;28;20052;-68
2021/12/30 02:23:37;;;;;;;57.72;7.53;;;7.50;99.90;;;;;;5096226;28;20039;-68
2021/12/30 02:26:13;;;;;;;51.45;6.55;;;7.50;99.90;;;;;;5096063;28;20097;-68
2021/12/30 02:28:39;;;;;;;61.38;8.55;;;7.30;99.90;;;;;;5096114;28;20136;-69
2021/12/30 02:31:10;;;;;;;66.78;8.18;;;7.10;99.90;;;;;;5096017;28;20062;-68
2021/12/30 02:33:35;;;;;;;53.42;8.68;;;7.10;99.90;;;;;;5096021;28;20086;-68
2021/12/30 02:36:01;;;;;;;62.17;7.78;;;7.30;99.90;;;;;;5095649;28;20091;-68
2021/12/30 02:38:27;;;;;;;56.10;7.82;;;7.30;99.90;;;;;;5095890;28;20084;-68
2021/12/30 02:40:55;;;;;;;57.20;7.70;;;7.30;99.90;;;;;;5095853;28;20048;-68
2021/12/30 02:43:24;;;;;;;68.45;8.00;;;7.40;99.90;;;;;;5095798;28;20434;-69
2021/12/30 02:45:50;;;;;;;51.10;6.90;;;7.20;99.90;;;;;;5094669;28;20454;-69
2021/12/30 02:48:19;;;;;;;67.10;8.38;;;7.50;99.90;;;;;;5095725;28;20052;-68
2021/12/30 02:50:46;;;;;;;62.33;6.40;;;7.50;99.90;;;;;;5094333;28;20065;-69
2021/12/30 02:53:13;;;;;;;59.40;8.25;;;7.50;99.90;;;;;;5095301;28;20395;-69
2021/12/30 02:55:39;;;;;;;60.47;8.70;;;;;;;;;;5094706;28;20055;-68
2021/12/30 02:58:05;;;;;;;69.55;7.78;;;7.80;99.90;;;;;;5093746;28;20129;-69
2021/12/30 03:00:31;;;;;;;64.78;7.40;;;;;;;;;;5093991;28;20090;-68
2021/12/30 03:02:57;;;;;;;58.55;7.32;;;7.60;99.90;;;;;;5095797;28;20118;-68
2021/12/30 03:05:24;;;;;;;59.55;7.15;;;7.50;99.90;;;;;;5095518;28;20058;-68
2021/12/30 03:07:51;;;;;;;52.78;7.05;;;7.70;99.90;;;;;;5094183;28;20055;-69
2021/12/30 03:10:20;;;;;;;54.67;8.13;;;7.60;99.90;;;;;;5095303;28;20056;-68
2021/12/30 03:12:52;;;;;;;52.65;7.32;;;7.60;99.90;;;;;;5093983;28;20047;-68
2021/12/30 03:15:18;;;;;;;54.95;6.97;;;7.70;99.90;;;;;;5095303;28;20047;-68
2021/12/30 03:17:44;;;;;;;52.22;7.57;;;7.40;99.90;;;;;;5095128;28;20075;-68
2021/12/30 03:20:10;;;;;;;56.03;7.22;;;7.50;99.90;;;;;;5076988;28;20047;-68
2021/12/30 03:22:36;;;;;;;;;;;7.70;99.90;;;;;;5095448;28;20036;-68
2021/12/30 03:25:04;;;;;;;52.58;6.75;;;7.20;99.90;;;;;;5093784;28;19985;-68
2021/12/30 03:27:30;;;;;;;57.42;7.57;;;7.40;99.90;;;;;;5093886;28;20054;-68
2021/12/30 03:29:56;;;;;;;62.33;7.43;;;7.40;99.90;;;;;;5093787;28;20052;-68
2021/12/30 03:32:21;;;;;;;75.82;8.23;;;7.30;99.90;;;;;;5094918;28;20047;-68
2021/12/30 03:34:47;;;;;;;56.92;7.28;;;7.10;99.90;;;;;;5094696;28;20061;-68
2021/12/30 03:37:13;;;;;;;60.67;7.65;;;;;;;;;;5094745;28;20048;-68
2021/12/30 03:39:40;;;;;;;72.43;8.88;;;7.40;99.90;;;;;;5093759;28;20444;-68
2021/12/30 03:42:06;;;;;;;78.72;8.80;;;;;;;;;;5094593;28;20052;-68
2021/12/30 03:44:32;;;;;;;84.20;8.50;;;7.60;99.90;;;;;;5094776;28;20130;-68
2021/12/30 03:46:58;;;;;;;75.40;9.45;;;7.30;99.90;;;;;;5093571;28;20166;-68
2021/12/30 03:49:24;;;;;;;75.85;9.32;;;7.50;99.90;;;;;;5093284;28;20048;-68
2021/12/30 03:51:52;;;;;;;69.30;8.95;;;7.50;99.90;;;;;;5094312;28;20044;-68
2021/12/30 03:54:18;;;;;;;78.80;9.93;;;7.60;99.90;;;;;;5094448;28;20058;-68
2021/12/30 03:56:44;;;;;;;67.25;8.75;;;7.60;99.90;;;;;;5093140;28;20040;-69
2021/12/30 03:59:09;;;;;;;72.65;9.13;;;7.60;99.90;;;;;;5094334;28;20130;-68
2021/12/30 04:01:35;;;;;;;67.90;8.27;;;7.50;99.90;;;;;;5094438;28;20047;-67
2021/12/30 04:04:01;;;;;;;89.70;9.27;;;7.70;99.90;;;;;;5092753;28;20365;-68
2021/12/30 04:06:27;;;;;;;;;;;7.50;99.90;;;;;;5094734;28;20055;-68
2021/12/30 04:08:55;;;;;;;70.68;10.05;;;7.60;99.90;;;;;;5092539;28;19920;-68
2021/12/30 04:11:24;;;;;;;78.57;11.23;;;7.60;99.90;;;;;;5092598;28;20043;-67
2021/12/30 04:13:49;;;;;;;69.57;11.52;;;7.60;99.90;;;;;;5092815;28;20074;-69
2021/12/30 04:16:15;;;;;;;84.88;10.25;;;7.60;99.90;;;;;;5094449;28;20036;-68
2021/12/30 04:18:41;;;;;;;85.32;12.40;;;;;;;;;;5092761;28;20047;-68
2021/12/30 04:21:07;;;;;;;96.05;13.52;;;8.00;99.90;;;;;;5093970;28;20048;-68
2021/12/30 04:23:33;;;;;;;100.07;14.02;;;;;;;;;;5094026;28;20081;-68
2021/12/30 04:25:59;;;;;;;88.85;12.77;;;8.00;99.90;;;;;;5093889;28;20044;-68
2021/12/30 04:28:25;;;;;;;85.97;14.15;;;7.50;99.90;;;;;;5094035;28;20395;-67
2021/12/30 04:30:50;;;;;;;;;;;7.70;99.90;;;;;;5094359;28;20047;-68
2021/12/30 04:33:16;;;;;;;101.25;14.93;;;7.80;99.90;;;;;;5092144;28;19931;-68
2021/12/30 04:35:42;;;;;;;97.82;15.82;;;7.90;99.90;;;;;;5075556;28;20139;-68
2021/12/30 04:38:08;;;;;;;93.20;15.63;;;7.70;99.90;;;;;;5093709;28;20040;-68
2021/12/30 04:40:33;;;;;;;95.65;17.00;;;7.90;99.90;;;;;;5092458;28;20197;-68
2021/12/30 04:42:59;;;;;;;80.97;14.02;;;7.90;99.90;;;;;;5093607;28;20440;-68
2021/12/30 04:45:26;;;;;;;93.35;15.13;;;;;;;;;;5093690;28;20039;-67
2021/12/30 04:47:52;;;;;;;88.82;14.60;;;7.90;99.90;;;;;;5093313;28;20408;-68
2021/12/30 04:50:18;;;;;;;97.32;15.57;;;8.00;99.90;;;;;;5092323;28;20131;-67
2021/12/30 04:52:43;;;;;;;109.93;15.07;;;8.10;99.90;;;;;;5093464;28;20059;-67
2021/12/30 04:55:10;;;;;;;100.85;13.88;;;7.80;99.90;;;;;;5093510;28;20047;-67
2021/12/30 04:57:36;;;;;;;102.43;14.90;;;7.90;99.90;;;;;;5092761;28;20067;-68
2021/12/30 05:00:05;;;;;;;100.65;13.77;;;8.00;99.90;;;;;;5092374;28;20125;-67
2021/12/30 05:02:43;;;;;;;96.68;15.60;;;8.10;99.90;;;;;;5092235;28;20105;-67
2021/12/30 05:05:09;;;;;;;91.57;14.18;;;8.10;99.90;;;;;;5093159;28;20488;-68
2021/12/30 05:07:34;;;;;;;90.70;14.98;;;8.20;99.90;;;;;;5092569;28;20044;-68
2021/12/30 05:10:00;;;;;;;101.00;16.63;;;8.20;99.90;;;;;;5093708;28;20044;-69
2021/12/30 05:12:26;;;;;;;113.05;16.85;;;8.30;99.90;;;;;;5075474;28;20048;-68
2021/12/30 05:14:51;;;;;;;117.80;19.10;;;8.50;99.90;;;;;;5092258;28;20154;-68
2021/12/30 05:17:17;;;;;;;118.93;19.80;;;8.60;99.90;;;;;;5092212;28;20052;-68
2021/12/30 05:19:43;;;;;;;132.38;20.42;;;8.70;99.90;;;;;;5093315;28;20051;-68
2021/12/30 05:22:08;;;;;;;128.30;22.48;;;8.70;99.90;;;;;;5096326;28;20051;-69
2021/12/30 05:24:34;;;;;;;127.28;21.35;;;8.80;99.90;;;;;;5097298;28;20052;-68
2021/12/30 05:26:59;;;;;;;144.13;22.70;;;8.70;99.90;;;;;;5097236;28;20040;-68
2021/12/30 05:29:25;;;;;;;145.18;23.45;;;9.00;99.90;;;;;;5095750;28;20248;-69
2021/12/30 05:31:51;;;;;;;130.05;22.25;;;8.80;99.90;;;;;;5096160;28;20040;-68
2021/12/30 05:34:17;;;;;;;157.90;24.33;;;9.10;99.90;;;;;;5095954;28;20048;-68
2021/12/30 05:36:42;;;;;;;124.88;22.55;;;8.90;99.90;;;;;;5097120;28;20125;-68
2021/12/30 05:39:08;;;;;;;146.43;23.70;;;9.40;99.90;;;;;;5096983;28;20430;-68
2021/12/30 05:41:34;;;;;;;160.27;26.40;;;9.20;99.90;;;;;;5097018;28;20093;-68
2021/12/30 05:44:00;;;;;;;182.43;25.50;;;9.70;99.90;;;;;;5078834;28;20860;-68
2021/12/30 05:46:27;;;;;;;;;;;9.10;99.90;;;;;;5096481;28;20404;-68
2021/12/30 05:48:53;;;;;;;169.27;28.00;;;10.10;99.90;;;;;;5095781;28;19927;-67
2021/12/30 05:51:18;;;;;;;171.55;28.00;;;9.40;99.90;;;;;;5096818;28;20048;-67
2021/12/30 05:53:44;;;;;;;181.05;29.52;;;9.60;99.90;;;;;;5096706;28;20073;-67
2021/12/30 05:56:10;;;;;;;135.98;26.67;;;9.70;99.90;;;;;;5096734;28;20043;-66
2021/12/30 05:58:35;;;;;;;144.85;27.05;;;9.50;99.90;;;;;;5078832;28;20051;-67
2021/12/30 06:01:01;;;;;;;108.18;24.08;;;9.80;99.90;;;;;;5096645;28;20522;-69
2021/12/30 06:03:26;;;;;;;114.85;24.85;;;9.80;99.90;;;;;;5096620;28;20036;-67
2021/12/30 06:05:52;;;;;;;110.25;23.25;;;9.70;99.90;;;;;;5096594;28;20048;-68
2021/12/30 06:08:18;;;;;;;119.07;24.88;;;10.00;99.90;;;;;;5095538;28;20040;-67
2021/12/30 06:10:44;;;;;;;113.75;26.45;;;9.90;99.90;;;;;;5078944;28;20075;-68
2021/12/30 06:13:10;;;;;;;;;;;10.00;99.90;;;;;;5095516;28;20438;-68
2021/12/30 06:15:36;;;;;;;108.68;23.98;;;10.10;99.90;;;;;;5096445;28;19924;-68
2021/12/30 06:18:02;;;;;;;96.68;23.45;;;9.90;99.90;;;;;;5096250;28;20044;-68
2021/12/30 06:20:29;;;;;;;100.85;25.67;;;9.90;99.90;;;;;;5096295;28;20121;-68
2021/12/30 06:22:55;;;;;;;89.35;23.20;;;11.30;99.90;;;;;;5095494;28;20109;-68
2021/12/30 06:25:21;;;;;;;108.05;23.08;;;10.20;99.90;;;;;;5096154;28;20043;-68
2021/12/30 06:27:46;;;;;;;88.97;21.48;;;10.10;99.90;;;;;;5095991;28;20047;-68
2021/12/30 06:30:12;;;;;;;90.05;23.08;;;10.20;99.90;;;;;;5061526;28;20377;-68
2021/12/30 06:32:38;;;;;;;95.65;22.90;;;10.10;99.90;;;;;;5095031;28;20084;-68
2021/12/30 06:35:07;;;;;;;86.57;23.13;;;10.20;99.90;;;;;;5096001;28;20086;-68
2021/12/30 06:37:34;;;;;;;104.03;23.70;;;9.90;99.90;;;;;;5095069;28;20130;-68
2021/12/30 06:40:00;;;;;;;89.55;23.30;;;9.90;99.90;;;;;;5078123;28;20044;-69
2021/12/30 06:42:26;;;;;;;108.32;22.98;;;10.20;99.90;;;;;;5095567;28;20047;-67
2021/12/30 06:44:52;;;;;;;102.00;22.45;;;10.50;99.90;;;;;;5094899;28;20043;-68
2021/12/30 06:47:18;;;;;;;93.03;22.15;;;10.30;99.90;;;;;;5095757;28;20036;-69
2021/12/30 06:49:43;;;;;;;92.68;21.38;;;10.10;99.90;;;;;;5094580;28;20040;-68
2021/12/30 06:52:11;;;;;;;89.47;21.35;;;10.20;99.90;;;;;;5095546;28;20136;-68
2021/12/30 06:54:38;;;;;;;82.80;20.90;;;10.40;99.90;;;;;;5095607;28;20499;-68
2021/12/30 06:57:06;;;;;;;89.43;21.30;;;10.40;99.90;;;;;;5095356;28;20090;-69
2021/12/30 06:59:32;;;;;;;87.00;22.27;;;10.20;99.90;;;;;;5094596;28;20081;-68
2021/12/30 07:01:58;;;;;;;;;;;11.00;99.90;;;;;;5096054;28;20444;-68
2021/12/30 07:04:25;;;;;;;95.95;21.20;;;10.40;99.90;;;;;;5094453;28;19970;-69
2021/12/30 07:06:52;;;;;;;81.45;19.70;;;10.10;99.90;;;;;;5095436;28;20148;-68
2021/12/30 07:09:18;;;;;;;89.78;21.98;;;10.10;99.90;;;;;;5077496;28;20488;-68
2021/12/30 07:11:43;;;;;;;91.20;22.08;;;10.20;99.90;;;;;;5095114;28;20068;-68
2021/12/30 07:14:09;;;;;;;90.78;23.23;;;10.40;99.90;;;;;;5095150;28;20048;-68
2021/12/30 07:16:35;;;;;;;104.20;22.77;;;10.30;99.90;;;;;;5094085;28;20097;-67
2021/12/30 07:19:01;;;;;;;95.25;23.08;;;10.40;99.90;;;;;;5093928;28;20052;-68
2021/12/30 07:21:26;;;;;;;92.78;22.90;;;10.50;99.90;;;;;;5095091;28;20127;-69
2021/12/30 07:23:52;;;;;;;87.40;21.92;;;10.50;99.90;;;;;;5094039;28;20048;-68
2021/12/30 07:26:18;;;;;;;80.00;20.55;;;10.30;99.90;;;;;;5094761;28;20051;-69
2021/12/30 07:28:43;;;;;;;80.68;19.77;;;9.90;99.90;;;;;;5095110;28;20484;-68
2021/12/30 07:31:09;;;;;;;67.45;17.77;;;10.20;99.90;;;;;;5080478;28;20040;-68
2021/12/30 07:33:35;;;;;;;70.90;18.58;;;10.10;99.90;;;;;;5073203;28;20076;-68
2021/12/30 07:36:00;;;;;;;74.22;18.48;;;10.30;99.90;;;;;;5071380;28;20060;-68
2021/12/30 07:38:26;;;;;;;83.63;19.10;;;10.50;99.90;;;;;;5073094;28;20056;-68
2021/12/30 07:40:52;;;;;;;68.57;15.52;;;10.60;99.90;;;;;;5068472;28;20086;-68
2021/12/30 07:43:18;;;;;;;63.47;15.43;;;10.30;99.90;;;;;;5072584;28;20491;-69
2021/12/30 07:45:43;;;;;;;54.50;14.35;;;10.30;99.90;;;;;;5075718;28;20037;-68
2021/12/30 07:48:09;;;;;;;49.40;13.60;;;10.50;99.90;;;;;;5072955;28;20048;-68
2021/12/30 07:50:35;;;;;;;53.20;13.38;;;10.10;99.90;;;;;;5106022;28;20036;-68
2021/12/30 07:53:00;;;;;;;47.72;12.80;;;10.10;99.90;;;;;;5072100;28;20602;-68
2021/12/30 07:55:26;;;;;;;38.03;10.82;;;10.20;99.90;;;;;;5072851;28;20053;-67
2021/12/30 07:57:55;;;;;;;38.13;10.82;;;11.00;99.90;;;;;;5071892;28;20071;-68
2021/12/30 08:00:21;;;;;;;31.88;9.63;;;10.40;99.90;;;;;;5071672;28;20412;-69
2021/12/30 08:02:47;;;;;;;37.30;9.60;;;10.30;99.90;;;;;;5071643;28;20053;-68
2021/12/30 08:05:16;;;;;;;33.53;9.27;;;10.20;99.90;;;;;;5072715;28;20179;-69
2021/12/30 08:07:45;;;;;;;29.52;8.65;;;10.80;99.90;;;;;;5072441;28;20101;-68
2021/12/30 08:10:14;;;;;;;25.30;8.82;;;10.20;99.90;;;;;;5072715;28;20051;-68
2021/12/30 08:12:41;;;;;;;22.25;8.20;;;10.10;99.90;;;;;;5068918;28;20037;-67
2021/12/30 08:15:08;;;;;;;22.92;7.90;;;10.40;99.90;;;;;;5072640;28;20044;-68
2021/12/30 08:17:34;;;;;;;32.10;8.82;;;10.50;99.90;;;;;;5071679;28;20045;-69
2021/12/30 08:20:00;;;;;;;27.77;9.30;;;10.30;99.90;;;;;;5072719;28;20051;-68
2021/12/30 08:22:26;;;;;;;26.40;10.18;;;10.40;99.90;;;;;;5054224;28;20052;-69
2021/12/30 08:24:51;;;;;;;28.67;9.98;;;10.30;99.90;;;;;;5071621;28;20131;-68
2021/12/30 08:27:17;;;;;;;28.77;9.02;;;10.50;99.90;;;;;;5072820;28;20036;-68
2021/12/30 08:29:43;;;;;;;32.72;10.25;;;10.70;99.90;;;;;;5072158;28;20049;-68
2021/12/30 08:32:11;;;;;;;28.80;10.27;;;10.50;99.90;;;;;;5072393;28;20076;-67
2021/12/30 08:34:38;;;;;;;30.50;10.25;;;10.80;99.90;;;;;;5069762;28;20058;-67
2021/12/30 08:37:04;;;;;;;30.52;10.35;;;11.60;99.90;;;;;;5066511;28;20058;-68
2021/12/30 08:39:30;;;;;;;20.60;9.13;;;10.80;99.90;;;;;;5072937;28;20052;-67
2021/12/30 08:41:57;;;;;;;25.38;8.88;;;10.40;99.90;;;;;;5073333;28;20048;-69
2021/12/30 08:44:24;;;;;;;27.38;8.90;;;10.60;99.90;;;;;;5073159;28;20087;-69
2021/12/30 08:46:50;;;;;;;30.20;9.75;;;10.60;99.90;;;;;;5073356;28;20049;-70
2021/12/30 08:49:16;;;;;;;35.83;11.65;;;10.60;99.90;;;;;;5073147;28;20392;-72
2021/12/30 08:51:42;;;;;;;37.15;12.30;;;10.90;99.90;;;;;;5073136;28;20044;-71
2021/12/30 08:54:07;;;;;;;39.15;13.20;;;11.10;99.90;;;;;;5072740;28;20510;-69
2021/12/30 08:56:33;;;;;;;39.13;13.02;;;10.80;99.90;;;;;;5072576;28;20094;-69
2021/12/30 08:58:59;;;;;;;40.30;13.20;;;11.00;99.90;;;;;;5073168;28;20094;-68
2021/12/30 09:01:27;;;;;;;40.92;13.32;;;10.90;99.90;;;;;;5073094;28;20055;-69
2021/12/30 09:03:52;;;;;;;31.70;10.88;;;10.90;99.90;;;;;;5073075;28;20041;-70
2021/12/30 09:06:18;;;;;;;37.08;9.93;;;11.10;99.90;;;;;;5072985;28;20092;-71
2021/12/30 09:08:44;;;;;;;26.30;8.32;;;11.20;99.90;;;;;;5071555;28;20373;-71
2021/12/30 09:11:10;;;;;;;27.25;8.20;;;11.00;99.90;;;;;;5073074;28;20366;-69
2021/12/30 09:13:35;;;;;;;33.70;8.23;;;11.50;99.90;;;;;;5071790;28;20037;-74
2021/12/30 09:16:02;;;;;;;26.00;6.18;;;11.40;99.90;;;;;;5072533;28;20090;-76
2021/12/30 09:18:28;;;;;;;29.27;6.63;;;11.50;99.90;;;;;;5071710;28;20500;-72
2021/12/30 09:20:54;;;;;;;28.63;6.07;;;11.60;99.90;;;;;;5072921;28;20054;-79
2021/12/30 09:23:20;;;;;;;34.13;6.38;;;11.40;99.90;;;;;;5071250;28;20080;-72
2021/12/30 09:25:46;;;;;;;27.65;6.47;;;11.30;99.90;;;;;;5052844;28;20154;-71
2021/12/30 09:28:12;;;;;;;28.60;6.38;;;11.40;99.90;;;;;;5052274;28;20497;-78
2021/12/30 09:30:41;;;;;;;38.78;5.97;;;11.50;99.90;;;;;;5085281;28;20049;-72
2021/12/30 09:33:07;;;;;;;28.38;4.97;;;11.50;99.90;;;;;;5052914;28;20102;-74
2021/12/30 09:35:32;;;;;;;24.42;4.72;;;11.70;99.90;;;;;;5052864;28;20134;-76
2021/12/30 09:37:59;;;;;;;25.88;5.55;;;11.40;99.90;;;;;;5085464;28;20473;-71
2021/12/30 09:40:26;;;;;;;21.10;4.68;;;11.60;99.90;;;;;;5051956;28;20090;-79
2021/12/30 09:43:01;;;;;;;33.03;5.72;;;11.30;99.90;;;;;;5068226;28;20052;-79
2021/12/30 09:45:28;;;;;;;24.27;4.88;;;11.50;99.90;;;;;;5051702;28;20049;-72
2021/12/30 09:47:56;;;;;;;24.30;4.63;;;11.50;99.90;;;;;;5052928;28;20138;-75
2021/12/30 09:50:28;;;;;;;21.58;5.22;;;12.20;99.90;;;;;;5052596;28;20222;-74
2021/12/30 09:52:56;;;;;;;20.17;4.70;;;11.70;99.90;;;;;;5085246;28;20041;-76
2021/12/30 09:55:21;;;;;;;24.60;4.35;;;11.70;99.90;;;;;;5051818;28;20049;-77
2021/12/30 09:57:47;;;;;;;28.42;4.68;;;11.30;99.90;;;;;;5052871;28;20048;-77
2021/12/30 10:00:14;;;;;;;22.63;4.55;;;11.60;99.90;;;;;;5051859;28;20079;-80
2021/12/30 10:02:42;;;;;;;32.80;5.13;;;11.70;99.90;;;;;;5095900;28;20047;-76
2021/12/30 10:05:18;;;;;;;33.30;5.43;;;11.50;99.90;;;;;;5088511;28;20059;-75
2021/12/30 10:07:44;;;;;;;27.63;4.88;;;11.80;99.90;;;;;;5073359;28;20048;-71
2021/12/30 10:10:26;;;;;;;;;;;11.50;99.90;;;;;;5059186;28;20045;-73
2021/12/30 10:12:53;;;;;;;19.75;4.20;;;11.30;99.90;;;;;;5076152;28;19921;-73
2021/12/30 10:15:20;;;;;;;;;;;11.70;99.90;;;;;;5076650;28;20044;-76
2021/12/30 10:17:57;;;;;;;28.23;4.90;;;11.50;99.90;;;;;;5075164;28;20006;-72
2021/12/30 10:20:27;;;;;;;34.63;6.50;;;11.50;99.90;;;;;;5069327;28;20048;-80
2021/12/30 10:22:55;;;;;;;28.75;6.20;;;11.50;99.90;;;;;;5076958;28;20048;-73
2021/12/30 10:25:34;;;;;;;34.53;6.35;;;11.50;99.90;;;;;;5075873;28;20088;-77
2021/12/30 10:28:31;;;;;;;35.72;6.10;;;11.60;99.90;;;;;;5075568;28;20102;-74
2021/12/30 10:31:11;;;;;;;42.55;5.20;;;11.70;99.90;;;;;;5075813;28;20044;-78
2021/12/30 10:34:04;;;;;;;33.67;5.28;;;11.70;99.90;;;;;;5070607;28;20138;-70
2021/12/30 10:36:35;;;;;;;28.17;5.13;;;11.30;99.90;;;;;;5055814;28;20049;-70
2021/12/30 10:39:27;;;;;;;23.35;4.43;;;11.60;99.90;;;;;;5054750;28;20151;-69
2021/12/30 10:42:06;;;;;;;34.92;5.30;;;11.60;99.90;;;;;;5056034;28;20052;-70
2021/12/30 10:44:48;;;;;;;37.28;5.55;;;11.50;99.90;;;;;;5055661;28;20136;-70
2021/12/30 10:47:15;;;;;;;44.28;7.78;;;11.40;99.90;;;;;;5071361;28;20131;-72
2021/12/30 10:49:41;;;;;;;37.90;5.70;;;11.70;99.90;;;;;;5074547;28;20527;-74
2021/12/30 10:52:07;;;;;;;44.22;5.85;;;11.90;99.90;;;;;;5073914;28;20040;-70
2021/12/30 10:54:36;;;;;;;32.60;5.95;;;11.60;99.90;;;;;;5074955;28;20037;-72
2021/12/30 10:57:09;;;;;;;36.42;5.45;;;11.60;99.90;;;;;;5074956;28;20044;-69
2021/12/30 10:59:47;;;;;;;31.60;5.13;;;11.30;99.90;;;;;;5072183;28;20055;-72
2021/12/30 11:02:18;;;;;;;37.17;5.32;;;11.90;99.90;;;;;;5073558;28;20045;-70
2021/12/30 11:04:56;;;;;;;34.85;5.50;;;11.70;99.90;;;;;;5074186;28;20052;-69
2021/12/30 11:07:51;;;;;;;33.80;4.95;;;11.80;99.90;;;;;;5072657;28;20458;-71
2021/12/30 11:10:32;;;;;;;29.88;5.93;;;11.60;99.90;;;;;;5071799;28;20068;-73
2021/12/30 11:13:13;;;;;;;34.50;6.25;;;12.10;99.90;;;;;;5074926;28;20443;-71
2021/12/30 11:15:40;;;;;;;32.75;5.43;;;11.50;99.90;;;;;;5074937;28;20500;-69
2021/12/30 11:18:11;;;;;;;47.53;5.90;;;11.80;99.90;;;;;;5074543;28;20052;-70
2021/12/30 11:20:46;;;;;;;45.00;6.15;;;11.70;99.90;;;;;;5075004;28;20052;-71
2021/12/30 11:23:13;;;;;;;39.50;6.70;;;11.90;99.90;;;;;;5075239;28;20040;-74
2021/12/30 11:25:39;;;;;;;41.95;6.40;;;11.80;99.90;;;;;;5073740;28;20523;-70
2021/12/30 11:28:05;;;;;;;35.78;5.60;;;11.60;99.90;;;;;;5073816;28;20075;-73
2021/12/30 11:30:31;;;;;;;46.88;6.85;;;11.80;99.90;;;;;;5074900;28;20127;-71
2021/12/30 11:32:57;;;;;;;46.42;6.55;;;12.50;99.90;;;;;;5072987;28;20048;-72
2021/12/30 11:35:24;;;;;;;;;;;11.70;99.90;;;;;;5083299;28;20131;-72
2021/12/30 11:37:50;;;;;;;48.05;7.70;;;11.80;99.90;;;;;;5093253;28;19920;-68
2021/12/30 11:40:21;;;;;;;45.40;7.40;;;11.60;99.90;;;;;;5094545;28;20052;-70
2021/12/30 11:43:11;;;;;;;37.25;6.18;;;12.00;99.90;;;;;;5093794;28;20095;-69
2021/12/30 11:45:39;;;;;;;47.00;6.38;;;11.50;99.90;;;;;;5093755;28;20048;-70
2021/12/30 11:48:29;;;;;;;56.60;7.72;;;11.60;99.90;;;;;;5094510;28;20052;-68
2021/12/30 11:51:10;;;;;;;45.03;7.55;;;11.60;99.90;;;;;;5093795;28;20063;-74
2021/12/30 11:53:38;;;;;;;47.85;8.35;;;11.60;99.90;;;;;;5094446;28;20060;-70
2021/12/30 11:56:10;;;;;;;42.88;7.20;;;11.80;99.90;;;;;;5094453;28;20048;-70
2021/12/30 11:58:42;;;;;;;41.55;7.35;;;11.50;99.90;;;;;;5093737;28;20039;-69
2021/12/30 12:01:10;;;;;;;39.83;7.22;;;12.10;99.90;;;;;;5094249;28;20118;-75
2021/12/30 12:03:37;;;;;;;42.33;8.10;;;12.60;99.90;;;;;;5094543;28;20047;-71
2021/12/30 12:06:27;;;;;;;45.28;7.95;;;11.80;99.90;;;;;;5093341;28;20047;-70
2021/12/30 12:08:55;;;;;;;42.42;7.20;;;11.80;99.90;;;;;;5093210;28;20056;-71
2021/12/30 12:11:29;;;;;;;48.47;7.10;;;12.00;99.90;;;;;;5092827;28;20503;-74
2021/12/30 12:14:12;;;;;;;48.63;8.02;;;11.60;99.90;;;;;;5092967;28;20052;-70
2021/12/30 12:16:56;;;;;;;35.67;6.82;;;11.90;99.90;;;;;;5093224;28;20437;-74
2021/12/30 12:19:39;;;;;;;52.38;6.80;;;12.00;99.90;;;;;;5094352;28;20048;-72
2021/12/30 12:22:29;;;;;;;38.50;6.88;;;11.90;99.90;;;;;;5094105;28;20052;-71
2021/12/30 12:25:11;;;;;;;48.92;6.82;;;11.60;99.90;;;;;;5092096;28;20488;-73
2021/12/30 12:27:40;;;;;;;41.20;7.70;;;12.00;99.90;;;;;;5094038;28;20093;-68
2021/12/30 12:30:20;;;;;;;37.30;6.90;;;12.20;99.90;;;;;;5075434;28;20400;-70
2021/12/30 12:32:47;;;;;;;47.75;7.50;;;11.90;99.90;;;;;;5093922;28;20122;-74
2021/12/30 12:35:19;;;;;;;52.47;8.25;;;12.30;99.90;;;;;;5092645;28;20089;-72
2021/12/30 12:37:48;;;;;;;44.13;7.20;;;12.20;99.90;;;;;;5093965;28;20044;-72
2021/12/30 12:40:17;;;;;;;39.40;6.70;;;12.70;99.90;;;;;;5093830;28;20052;-76
2021/12/30 12:42:48;;;;;;;39.80;7.07;;;12.40;99.90;;;;;;5093881;28;20145;-73
2021/12/30 12:45:19;;;;;;;39.25;6.65;;;12.20;99.90;;;;;;5092247;28;20392;-71
2021/12/30 12:47:46;;;;;;;33.25;5.90;;;12.20;99.90;;;;;;5093930;28;20087;-73